createdAt,value
2023-05-10T00:02:05.738Z,14.30
2023-05-10T00:04:32.591Z,14.20
2023-05-10T00:06:59.399Z,13.90
2023-05-10T00:09:26.267Z,14.10
2023-05-10T00:11:53.143Z,13.90
2023-05-10T00:14:20.206Z,13.90
2023-05-10T00:16:47.285Z,13.80
2023-05-10T00:19:14.197Z,13.90
2023-05-10T00:21:41.135Z,13.80
2023-05-10T00:24:08.133Z,13.80
2023-05-10T00:26:35.009Z,14.00
2023-05-10T00:29:01.836Z,14.00
2023-05-10T00:31:28.609Z,14.00
2023-05-10T00:33:56.766Z,14.00
2023-05-10T00:36:23.644Z,13.90
2023-05-10T00:38:50.420Z,13.90
2023-05-10T00:41:17.622Z,14.00
2023-05-10T00:43:44.505Z,13.90
2023-05-10T00:46:11.857Z,13.80
2023-05-10T00:48:39.085Z,13.80
2023-05-10T00:51:06.021Z,13.90
2023-05-10T00:53:33.832Z,14.00
2023-05-10T00:56:00.967Z,14.00
2023-05-10T00:58:29.268Z,14.10
2023-05-10T01:00:59.467Z,14.00
2023-05-10T01:03:27.232Z,14.10
2023-05-10T01:05:54.288Z,14.10
2023-05-10T01:08:21.362Z,14.10
2023-05-10T01:10:50.127Z,14.10
2023-05-10T01:13:45.442Z,14.10
2023-05-10T01:16:12.736Z,14.10
2023-05-10T01:18:42.618Z,14.00
2023-05-10T01:21:12.418Z,13.90
2023-05-10T01:24:05.221Z,13.90
2023-05-10T01:27:19.541Z,13.90
2023-05-10T01:30:24.621Z,13.90
2023-05-10T01:33:01.727Z,13.80
2023-05-10T01:35:43.709Z,13.90
2023-05-10T01:38:34.135Z,13.90
2023-05-10T01:41:19.677Z,14.00
2023-05-10T01:44:35.826Z,13.90
2023-05-10T01:47:12.178Z,13.80
2023-05-10T01:50:03.140Z,13.80
2023-05-10T01:52:44.778Z,13.70
2023-05-10T01:55:17.562Z,13.60
2023-05-10T01:57:47.510Z,13.80
2023-05-10T02:00:17.400Z,13.60
2023-05-10T02:02:50.190Z,13.70
2023-05-10T02:05:18.468Z,13.70
2023-05-10T02:07:46.127Z,13.70
2023-05-10T02:10:14.530Z,13.70
2023-05-10T02:12:48.672Z,13.70
2023-05-10T02:15:23.348Z,13.80
2023-05-10T02:17:50.817Z,13.80
2023-05-10T02:20:19.654Z,13.90
2023-05-10T02:22:50.352Z,13.90
2023-05-10T02:25:21.042Z,13.80
2023-05-10T02:27:49.431Z,13.80
2023-05-10T02:30:18.068Z,13.80
2023-05-10T02:32:46.094Z,13.80
2023-05-10T02:35:13.873Z,13.80
2023-05-10T02:37:41.557Z,13.80
2023-05-10T02:40:10.278Z,13.90
2023-05-10T02:42:39.868Z,13.80
2023-05-10T02:45:13.017Z,13.80
2023-05-10T02:47:40.372Z,13.70
2023-05-10T02:50:08.149Z,13.60
2023-05-10T02:52:49.263Z,13.60
2023-05-10T02:55:17.841Z,13.70
2023-05-10T02:57:52.291Z,13.70
2023-05-10T03:00:19.471Z,13.70
2023-05-10T03:02:46.329Z,13.70
2023-05-10T03:05:13.203Z,13.70
2023-05-10T03:07:40.179Z,13.60
2023-05-10T03:10:07.911Z,13.70
2023-05-10T03:13:16.164Z,13.60
2023-05-10T03:16:10.103Z,13.50
2023-05-10T03:19:03.264Z,13.50
2023-05-10T03:21:31.667Z,13.60
2023-05-10T03:24:07.254Z,13.60
2023-05-10T03:26:34.602Z,13.60
2023-05-10T03:29:02.122Z,13.50
2023-05-10T03:31:28.981Z,13.60
2023-05-10T03:33:55.867Z,13.50
2023-05-10T03:36:22.721Z,13.50
2023-05-10T03:38:49.582Z,13.50
2023-05-10T03:41:16.547Z,13.40
2023-05-10T03:43:43.421Z,13.50
2023-05-10T03:46:10.562Z,13.50
2023-05-10T03:48:37.464Z,13.50
2023-05-10T03:51:04.537Z,13.60
2023-05-10T03:53:31.355Z,13.50
2023-05-10T03:55:58.168Z,13.50
2023-05-10T03:58:25.005Z,13.40
2023-05-10T04:00:52.960Z,13.50
2023-05-10T04:03:19.912Z,13.50
2023-05-10T04:05:46.764Z,13.60
2023-05-10T04:08:13.697Z,13.60
2023-05-10T04:10:40.699Z,13.60
2023-05-10T04:13:07.599Z,13.60
2023-05-10T04:15:34.749Z,13.50
2023-05-10T04:18:01.893Z,13.60
2023-05-10T04:20:28.956Z,13.60
2023-05-10T04:22:55.982Z,13.60
2023-05-10T04:25:22.778Z,13.60
2023-05-10T04:27:49.604Z,13.50
2023-05-10T04:30:16.563Z,13.50
2023-05-10T04:32:43.638Z,13.60
2023-05-10T04:35:11.636Z,13.70
2023-05-10T04:37:38.547Z,13.70
2023-05-10T04:40:07.105Z,13.70
2023-05-10T04:42:34.111Z,13.80
2023-05-10T04:45:00.919Z,13.70
2023-05-10T04:47:27.810Z,13.70
2023-05-10T04:49:54.684Z,13.70
2023-05-10T04:52:21.712Z,13.70
2023-05-10T04:54:48.567Z,13.80
2023-05-10T04:57:15.590Z,13.70
2023-05-10T04:59:43.458Z,13.70
2023-05-10T05:02:10.339Z,13.70
2023-05-10T05:04:37.222Z,13.80
2023-05-10T05:07:04.043Z,13.70
2023-05-10T05:09:32.937Z,13.80
2023-05-10T05:12:00.357Z,13.80
2023-05-10T05:14:27.371Z,13.90
2023-05-10T05:16:54.633Z,13.90
2023-05-10T05:19:21.681Z,14.00
2023-05-10T05:21:48.515Z,14.00
2023-05-10T05:24:15.350Z,14.00
2023-05-10T05:26:42.465Z,14.00
2023-05-10T05:29:09.359Z,14.00
2023-05-10T05:31:36.261Z,14.10
2023-05-10T05:34:03.203Z,14.00
2023-05-10T05:36:30.002Z,14.10
2023-05-10T05:38:56.807Z,14.20
2023-05-10T05:41:24.988Z,14.10
2023-05-10T05:43:51.789Z,14.10
2023-05-10T05:46:18.695Z,14.10
2023-05-10T05:48:45.515Z,14.20
2023-05-10T05:51:12.440Z,14.40
2023-05-10T05:53:39.265Z,14.30
2023-05-10T05:56:06.275Z,14.30
2023-05-10T05:58:33.115Z,14.40
2023-05-10T06:00:59.993Z,14.30
2023-05-10T06:03:26.973Z,14.20
2023-05-10T06:05:53.884Z,14.30
2023-05-10T06:08:21.297Z,14.30
2023-05-10T06:10:48.150Z,14.40
2023-05-10T06:13:16.592Z,14.20
2023-05-10T06:15:43.515Z,14.30
2023-05-10T06:18:10.486Z,14.40
2023-05-10T06:20:37.327Z,14.40
2023-05-10T06:23:04.199Z,14.40
2023-05-10T06:25:30.988Z,14.40
2023-05-10T06:27:58.926Z,14.40
2023-05-10T06:30:29.799Z,14.60
2023-05-10T06:32:57.622Z,14.50
2023-05-10T06:35:24.581Z,14.50
2023-05-10T06:37:52.386Z,14.50
2023-05-10T06:40:19.482Z,14.50
2023-05-10T06:42:47.333Z,14.60
2023-05-10T06:45:15.734Z,14.60
2023-05-10T06:47:43.259Z,14.80
2023-05-10T06:50:12.554Z,14.80
2023-05-10T06:52:40.110Z,14.80
2023-05-10T06:55:07.706Z,15.00
2023-05-10T06:57:34.624Z,15.00
2023-05-10T07:00:02.019Z,15.00
2023-05-10T07:02:29.494Z,15.10
2023-05-10T07:04:56.450Z,15.20
2023-05-10T07:07:23.306Z,15.30
2023-05-10T07:09:50.972Z,15.20
2023-05-10T07:12:18.028Z,15.30
2023-05-10T07:14:45.000Z,15.30
2023-05-10T07:17:11.864Z,15.50
2023-05-10T07:19:38.743Z,15.20
2023-05-10T07:22:05.601Z,15.30
2023-05-10T07:24:34.053Z,15.50
2023-05-10T07:27:00.935Z,15.50
2023-05-10T07:29:27.828Z,15.40
2023-05-10T07:31:56.498Z,15.50
2023-05-10T07:34:26.015Z,15.50
2023-05-10T07:36:53.288Z,15.70
2023-05-10T07:39:27.270Z,15.90
2023-05-10T07:41:56.028Z,16.10
2023-05-10T07:44:23.112Z,16.10
2023-05-10T07:46:50.046Z,16.30
2023-05-10T07:49:17.209Z,16.30
2023-05-10T07:51:44.303Z,16.40
2023-05-10T07:54:11.238Z,16.60
2023-05-10T07:56:38.132Z,16.60
2023-05-10T07:59:07.352Z,16.80
2023-05-10T08:01:35.559Z,16.60
2023-05-10T08:04:03.133Z,16.80
2023-05-10T08:06:30.956Z,17.30
2023-05-10T08:08:58.250Z,17.90
2023-05-10T08:11:25.626Z,18.40
2023-05-10T08:13:52.812Z,18.60
2023-05-10T08:16:20.338Z,18.60
2023-05-10T08:18:48.198Z,18.20
2023-05-10T08:21:16.413Z,18.00
2023-05-10T08:23:44.753Z,18.20
2023-05-10T08:26:12.045Z,18.70
2023-05-10T08:28:38.982Z,18.80
2023-05-10T08:31:06.795Z,18.70
2023-05-10T08:33:34.083Z,18.40
2023-05-10T08:36:00.976Z,18.30
2023-05-10T08:38:28.031Z,18.30
2023-05-10T08:40:59.818Z,18.30
2023-05-10T08:43:31.210Z,17.70
2023-05-10T08:46:03.913Z,17.40
2023-05-10T08:48:32.049Z,17.20
2023-05-10T08:51:02.972Z,16.80
2023-05-10T08:53:32.071Z,16.40
2023-05-10T08:55:59.138Z,16.20
2023-05-10T08:58:26.493Z,16.00
2023-05-10T09:00:53.864Z,16.10
2023-05-10T09:03:20.874Z,16.10
2023-05-10T09:05:49.453Z,16.50
2023-05-10T09:08:17.506Z,16.60
2023-05-10T09:10:49.303Z,16.50
2023-05-10T09:13:16.725Z,16.50
2023-05-10T09:15:45.379Z,16.70
2023-05-10T09:18:12.872Z,16.80
2023-05-10T09:20:39.918Z,17.10
2023-05-10T09:23:06.868Z,17.20
2023-05-10T09:25:38.138Z,17.00
2023-05-10T09:28:09.274Z,17.00
2023-05-10T09:30:36.813Z,17.30
2023-05-10T09:33:04.437Z,18.20
2023-05-10T09:35:33.773Z,18.70
2023-05-10T09:38:05.837Z,18.80
2023-05-10T09:40:33.529Z,18.40
2023-05-10T09:43:09.888Z,17.90
2023-05-10T09:45:38.969Z,17.60
2023-05-10T09:48:06.965Z,17.20
2023-05-10T09:50:35.102Z,16.80
2023-05-10T09:53:04.947Z,16.70
2023-05-10T09:55:47.402Z,16.80
2023-05-10T09:58:15.268Z,16.80
2023-05-10T10:00:45.702Z,16.90
2023-05-10T10:03:17.936Z,17.20
2023-05-10T10:05:46.220Z,17.30
2023-05-10T10:08:14.355Z,17.30
2023-05-10T10:10:42.324Z,17.40
2023-05-10T10:13:09.563Z,17.20
2023-05-10T10:15:36.674Z,17.20
2023-05-10T10:18:07.415Z,17.30
2023-05-10T10:20:34.776Z,17.40
2023-05-10T10:23:01.879Z,17.40
2023-05-10T10:25:29.222Z,17.20
2023-05-10T10:28:26.192Z,17.10
2023-05-10T10:30:57.034Z,17.40
2023-05-10T10:34:02.818Z,17.10
2023-05-10T10:36:31.317Z,16.80
2023-05-10T10:39:01.249Z,16.70
2023-05-10T10:41:37.097Z,17.00
2023-05-10T10:44:23.215Z,16.80
2023-05-10T10:47:25.449Z,16.90
2023-05-10T10:50:05.484Z,17.00
2023-05-10T10:52:37.464Z,17.10
2023-05-10T10:55:18.055Z,17.10
2023-05-10T10:57:48.009Z,17.00
2023-05-10T11:00:37.921Z,17.10
2023-05-10T11:03:10.082Z,17.30
2023-05-10T11:05:48.128Z,17.80
2023-05-10T11:08:32.129Z,17.90
2023-05-10T11:11:03.034Z,18.20
2023-05-10T11:13:32.692Z,18.80
2023-05-10T11:16:14.298Z,19.00
2023-05-10T11:18:41.588Z,19.50
2023-05-10T11:21:11.652Z,19.10
2023-05-10T11:23:44.298Z,19.40
2023-05-10T11:26:11.916Z,19.60
2023-05-10T11:28:49.684Z,19.40
2023-05-10T11:31:21.250Z,18.70
2023-05-10T11:33:54.660Z,18.30
2023-05-10T11:36:35.575Z,18.00
2023-05-10T11:39:03.832Z,17.90
2023-05-10T11:41:32.101Z,17.70
2023-05-10T11:43:59.906Z,17.40
2023-05-10T11:46:29.174Z,17.00
2023-05-10T11:49:02.624Z,16.60
2023-05-10T11:51:29.512Z,16.50
2023-05-10T11:53:58.123Z,16.50
2023-05-10T11:56:27.021Z,16.40
2023-05-10T11:58:57.287Z,16.20
2023-05-10T12:01:25.796Z,16.30
2023-05-10T12:03:55.206Z,16.30
2023-05-10T12:06:22.770Z,16.30
2023-05-10T12:08:54.559Z,16.20
2023-05-10T12:11:25.784Z,16.00
2023-05-10T12:13:52.714Z,15.90
2023-05-10T12:16:29.989Z,16.00
2023-05-10T12:19:01.622Z,16.30
2023-05-10T12:21:31.761Z,16.60
2023-05-10T12:24:04.612Z,16.70
2023-05-10T12:26:31.872Z,16.70
2023-05-10T12:29:19.217Z,16.90
2023-05-10T12:31:55.495Z,16.80
2023-05-10T12:34:36.223Z,16.70
2023-05-10T12:37:04.569Z,16.90
2023-05-10T12:39:45.142Z,17.00
2023-05-10T12:42:12.406Z,17.10
2023-05-10T12:44:40.648Z,17.20
2023-05-10T12:47:07.856Z,17.40
2023-05-10T12:49:35.082Z,16.90
2023-05-10T12:52:02.236Z,16.80
2023-05-10T12:54:29.143Z,16.30
2023-05-10T12:56:56.006Z,16.40
2023-05-10T12:59:23.873Z,16.30
2023-05-10T13:01:50.756Z,16.30
2023-05-10T13:04:17.627Z,16.20
2023-05-10T13:06:44.515Z,16.10
2023-05-10T13:09:11.507Z,16.20
2023-05-10T13:11:38.452Z,16.30
2023-05-10T13:14:05.371Z,16.30
2023-05-10T13:16:32.726Z,16.30
2023-05-10T13:18:59.789Z,16.10
2023-05-10T13:21:26.791Z,16.10
2023-05-10T13:23:54.384Z,16.10
2023-05-10T13:26:21.242Z,16.10
2023-05-10T13:28:49.769Z,15.80
2023-05-10T13:31:16.824Z,15.60
2023-05-10T13:33:43.717Z,15.60
2023-05-10T13:36:10.523Z,15.70
2023-05-10T13:38:37.437Z,15.70
2023-05-10T13:41:04.476Z,15.70
2023-05-10T13:43:31.309Z,15.60
2023-05-10T13:45:58.269Z,15.80
2023-05-10T13:48:25.203Z,15.80
2023-05-10T13:50:52.062Z,15.80
2023-05-10T13:53:18.935Z,15.70
2023-05-10T13:55:45.729Z,15.80
2023-05-10T13:58:12.592Z,15.40
2023-05-10T14:00:39.460Z,15.50
2023-05-10T14:03:07.382Z,15.80
2023-05-10T14:05:34.322Z,15.80
2023-05-10T14:08:01.165Z,15.60
2023-05-10T14:10:28.047Z,15.40
2023-05-10T14:12:54.864Z,15.50
2023-05-10T14:15:21.843Z,15.70
2023-05-10T14:17:48.948Z,15.80
2023-05-10T14:20:15.984Z,15.90
2023-05-10T14:22:42.835Z,16.10
2023-05-10T14:25:10.293Z,16.40
2023-05-10T14:27:37.502Z,16.40
2023-05-10T14:30:04.816Z,16.50
2023-05-10T14:32:33.022Z,16.40
2023-05-10T14:35:00.500Z,16.40
2023-05-10T14:37:27.756Z,16.70
2023-05-10T14:39:54.953Z,16.70
2023-05-10T14:42:22.310Z,17.00
2023-05-10T14:44:49.191Z,16.60
2023-05-10T14:47:16.065Z,16.30
2023-05-10T14:49:42.943Z,15.80
2023-05-10T14:52:09.817Z,15.70
2023-05-10T14:54:36.698Z,15.90
2023-05-10T14:57:03.590Z,15.60
2023-05-10T14:59:30.403Z,15.50
2023-05-10T15:01:57.591Z,15.90
2023-05-10T15:04:25.997Z,16.10
2023-05-10T15:06:59.990Z,16.20
2023-05-10T15:09:28.423Z,16.00
2023-05-10T15:11:56.096Z,16.10
2023-05-10T15:14:24.208Z,16.00
2023-05-10T15:16:51.144Z,15.90
2023-05-10T15:19:18.004Z,15.30
2023-05-10T15:21:45.609Z,15.40
2023-05-10T15:24:12.496Z,15.60
2023-05-10T15:26:39.459Z,15.70
2023-05-10T15:29:06.307Z,15.70
2023-05-10T15:31:36.052Z,15.70
2023-05-10T15:34:03.017Z,15.30
2023-05-10T15:36:29.867Z,15.40
2023-05-10T15:38:56.869Z,15.20
2023-05-10T15:41:24.505Z,15.10
2023-05-10T15:43:51.418Z,15.10
2023-05-10T15:46:18.295Z,15.10
2023-05-10T15:48:45.200Z,14.50
2023-05-10T15:51:12.379Z,14.50
2023-05-10T15:53:46.573Z,14.30
2023-05-10T15:56:19.874Z,14.10
2023-05-10T15:58:46.789Z,14.00
2023-05-10T16:01:13.728Z,14.00
2023-05-10T16:03:40.644Z,14.10
2023-05-10T16:06:07.989Z,14.10
2023-05-10T16:08:35.417Z,14.10
2023-05-10T16:11:03.775Z,14.10
2023-05-10T16:13:30.691Z,14.10
2023-05-10T16:15:58.190Z,14.00
2023-05-10T16:18:25.300Z,14.00
2023-05-10T16:20:53.781Z,13.80
2023-05-10T16:23:20.848Z,13.70
2023-05-10T16:25:47.726Z,13.40
2023-05-10T16:28:14.541Z,13.10
2023-05-10T16:30:41.463Z,13.10
2023-05-10T16:33:08.403Z,13.00
2023-05-10T16:35:35.351Z,13.10
2023-05-10T16:38:02.219Z,12.80
2023-05-10T16:40:29.095Z,12.80
2023-05-10T16:42:56.083Z,13.00
2023-05-10T16:45:23.068Z,13.10
2023-05-10T16:47:49.977Z,13.10
2023-05-10T16:50:17.558Z,13.00
2023-05-10T16:52:44.509Z,13.00
2023-05-10T16:55:11.417Z,13.00
2023-05-10T16:57:38.210Z,12.90
2023-05-10T17:00:06.259Z,12.90
2023-05-10T17:02:33.210Z,12.90
2023-05-10T17:05:00.174Z,12.70
2023-05-10T17:07:29.320Z,12.70
2023-05-10T17:09:56.622Z,12.70
2023-05-10T17:12:23.850Z,12.70
2023-05-10T17:14:50.800Z,12.60
2023-05-10T17:17:17.658Z,12.70
2023-05-10T17:19:47.570Z,12.60
2023-05-10T17:22:14.358Z,12.60
2023-05-10T17:24:41.167Z,12.60
2023-05-10T17:27:08.295Z,12.60
2023-05-10T17:29:35.129Z,12.50
2023-05-10T17:32:02.100Z,12.50
2023-05-10T17:34:29.099Z,12.60
2023-05-10T17:36:55.906Z,12.40
2023-05-10T17:39:25.875Z,12.40
2023-05-10T17:41:52.727Z,12.40
2023-05-10T17:44:19.815Z,12.20
2023-05-10T17:46:46.762Z,12.30
2023-05-10T17:49:13.586Z,12.40
2023-05-10T17:51:43.868Z,12.30
2023-05-10T17:54:10.659Z,12.40
2023-05-10T17:56:37.648Z,12.30
2023-05-10T17:59:05.791Z,12.10
2023-05-10T18:01:32.819Z,12.10
2023-05-10T18:03:59.663Z,12.10
2023-05-10T18:06:26.791Z,12.10
2023-05-10T18:08:53.575Z,12.10
2023-05-10T18:11:20.397Z,12.10
2023-05-10T18:13:47.236Z,12.20
2023-05-10T18:16:14.265Z,12.00
2023-05-10T18:18:41.112Z,11.90
2023-05-10T18:21:08.036Z,11.90
2023-05-10T18:23:34.888Z,12.00
2023-05-10T18:26:02.431Z,12.00
2023-05-10T18:28:29.274Z,12.00
2023-05-10T18:30:56.199Z,12.00
2023-05-10T18:33:23.062Z,11.90
2023-05-10T18:35:56.035Z,11.90
2023-05-10T18:38:22.984Z,11.70
2023-05-10T18:40:49.783Z,11.70
2023-05-10T18:43:16.753Z,11.60
2023-05-10T18:45:43.902Z,11.50
2023-05-10T18:48:10.980Z,11.60
2023-05-10T18:50:37.922Z,11.60
2023-05-10T18:53:05.031Z,11.70
2023-05-10T18:55:32.066Z,11.80
2023-05-10T18:57:58.916Z,11.80
2023-05-10T19:00:28.346Z,11.60
2023-05-10T19:02:55.691Z,11.30
2023-05-10T19:05:28.289Z,11.30
2023-05-10T19:07:55.208Z,11.30
2023-05-10T19:10:22.362Z,11.30
2023-05-10T19:12:49.184Z,11.50
2023-05-10T19:15:19.205Z,11.40
2023-05-10T19:17:47.898Z,11.40
2023-05-10T19:20:15.799Z,11.30
2023-05-10T19:22:58.138Z,11.30
2023-05-10T19:25:29.791Z,11.20
2023-05-10T19:27:59.789Z,11.10
2023-05-10T19:30:26.964Z,11.10
2023-05-10T19:32:55.745Z,11.00
2023-05-10T19:35:24.070Z,10.90
2023-05-10T19:37:54.759Z,11.00
2023-05-10T19:40:22.745Z,11.00
2023-05-10T19:42:49.603Z,11.10
2023-05-10T19:45:21.902Z,11.00
2023-05-10T19:47:49.073Z,11.00
2023-05-10T19:50:16.842Z,10.80
2023-05-10T19:52:44.849Z,10.90
2023-05-10T19:55:15.560Z,11.00
2023-05-10T19:57:42.699Z,11.00
2023-05-10T20:00:10.615Z,11.10
2023-05-10T20:02:40.631Z,11.10
2023-05-10T20:05:08.117Z,11.10
2023-05-10T20:07:35.031Z,11.10
2023-05-10T20:10:02.789Z,11.20
2023-05-10T20:12:32.733Z,11.10
2023-05-10T20:14:59.653Z,11.10
2023-05-10T20:17:26.480Z,11.20
2023-05-10T20:19:53.331Z,11.30
2023-05-10T20:22:20.498Z,11.10
2023-05-10T20:24:48.163Z,10.90
2023-05-10T20:27:15.150Z,10.90
2023-05-10T20:29:45.622Z,10.90
2023-05-10T20:32:12.427Z,10.80
2023-05-10T20:34:39.463Z,10.90
2023-05-10T20:37:06.567Z,11.00
2023-05-10T20:39:33.701Z,10.90
2023-05-10T20:42:00.626Z,10.90
2023-05-10T20:44:27.596Z,10.90
2023-05-10T20:46:54.787Z,10.70
2023-05-10T20:49:21.861Z,10.70
2023-05-10T20:51:48.766Z,10.80
2023-05-10T20:54:15.686Z,10.90
2023-05-10T20:56:42.518Z,10.90
2023-05-10T20:59:09.353Z,10.90
2023-05-10T21:01:36.272Z,10.90
2023-05-10T21:04:03.695Z,10.80
2023-05-10T21:06:31.934Z,10.80
2023-05-10T21:08:58.796Z,10.80
2023-05-10T21:11:25.702Z,10.80
2023-05-10T21:13:52.652Z,10.80
2023-05-10T21:16:20.371Z,10.80
2023-05-10T21:18:47.288Z,10.70
2023-05-10T21:21:14.259Z,10.80
2023-05-10T21:23:41.144Z,10.80
2023-05-10T21:26:07.963Z,10.80
2023-05-10T21:28:34.772Z,10.80
2023-05-10T21:31:01.701Z,10.80
2023-05-10T21:33:29.036Z,10.70
2023-05-10T21:35:56.667Z,10.80
2023-05-10T21:38:23.584Z,10.80
2023-05-10T21:40:50.454Z,10.80
2023-05-10T21:43:17.312Z,10.60
2023-05-10T21:45:44.141Z,10.60
2023-05-10T21:48:11.035Z,10.60
2023-05-10T21:50:37.936Z,10.70
2023-05-10T21:53:04.935Z,10.70
2023-05-10T21:55:31.971Z,10.90
2023-05-10T21:57:58.842Z,10.80
2023-05-10T22:00:26.460Z,10.90
2023-05-10T22:02:53.452Z,10.80
2023-05-10T22:05:21.113Z,10.80
2023-05-10T22:07:47.914Z,10.80
2023-05-10T22:10:14.779Z,10.50
2023-05-10T22:12:41.645Z,10.50
2023-05-10T22:15:10.677Z,10.60
2023-05-10T22:17:39.792Z,10.60
2023-05-10T22:20:08.437Z,10.70
2023-05-10T22:22:36.470Z,10.60
2023-05-10T22:25:04.770Z,10.60
2023-05-10T22:27:31.572Z,10.60
2023-05-10T22:29:58.386Z,10.80
2023-05-10T22:32:25.619Z,10.70
2023-05-10T22:34:52.682Z,10.60
2023-05-10T22:37:19.476Z,10.60
2023-05-10T22:39:46.766Z,10.60
2023-05-10T22:42:13.555Z,10.60
2023-05-10T22:44:40.449Z,10.60
2023-05-10T22:47:08.901Z,10.70
2023-05-10T22:49:35.863Z,10.50
2023-05-10T22:52:02.771Z,10.50
2023-05-10T22:54:29.645Z,10.40
2023-05-10T22:56:57.012Z,10.40
2023-05-10T22:59:24.039Z,10.40
2023-05-10T23:01:51.011Z,10.50
2023-05-10T23:04:17.953Z,10.60
2023-05-10T23:06:45.889Z,10.50
2023-05-10T23:09:12.761Z,10.60
2023-05-10T23:11:39.592Z,10.40
2023-05-10T23:14:06.660Z,10.30
2023-05-10T23:16:33.532Z,10.30
2023-05-10T23:19:00.489Z,10.40
2023-05-10T23:21:28.766Z,10.60
2023-05-10T23:23:57.003Z,10.60
2023-05-10T23:26:23.934Z,10.40
2023-05-10T23:28:50.865Z,10.40
2023-05-10T23:31:17.659Z,10.20
2023-05-10T23:33:44.493Z,10.10
2023-05-10T23:36:11.296Z,10.30
2023-05-10T23:38:39.298Z,10.30
2023-05-10T23:41:06.267Z,10.30
2023-05-10T23:43:33.132Z,10.40
2023-05-10T23:45:59.981Z,10.40
2023-05-10T23:48:26.889Z,10.50
2023-05-10T23:50:53.708Z,10.40
2023-05-10T23:53:20.642Z,10.30
2023-05-10T23:55:47.469Z,10.10
2023-05-10T23:58:14.334Z,10.10
